sensor_id;sensor_type;location;lat;lon;timestamp;pressure;altitude;pressure_sealevel;temperature;humidity
53550;BME280;67273;52.914;-0.982;2023-07-30T00:00:48;100284.16;;;23.68;45.92
53550;BME280;67273;52.914;-0.982;2023-07-30T00:03:15;100288.81;;;23.68;45.86
53550;BME280;67273;52.914;-0.982;2023-07-30T00:05:42;100283.31;;;23.68;45.89
53550;BME280;67273;52.914;-0.982;2023-07-30T00:08:07;100278.16;;;23.66;45.85
53550;BME280;67273;52.914;-0.982;2023-07-30T00:10:35;100280.88;;;23.66;45.81
53550;BME280;67273;52.914;-0.982;2023-07-30T00:13:00;100281.16;;;23.65;45.62
53550;BME280;67273;52.914;-0.982;2023-07-30T00:15:26;100290.22;;;23.65;45.88
53550;BME280;67273;52.914;-0.982;2023-07-30T00:17:52;100279.25;;;23.65;45.72
53550;BME280;67273;52.914;-0.982;2023-07-30T00:20:18;100288.56;;;23.64;45.62
53550;BME280;67273;52.914;-0.982;2023-07-30T00:22:45;100277.84;;;23.63;45.77
53550;BME280;67273;52.914;-0.982;2023-07-30T00:25:11;100269.94;;;23.61;45.74
53550;BME280;67273;52.914;-0.982;2023-07-30T00:27:37;100278.97;;;23.62;45.76
53550;BME280;67273;52.914;-0.982;2023-07-30T00:30:03;100263.34;;;23.62;45.96
53550;BME280;67273;52.914;-0.982;2023-07-30T00:32:29;100273.50;;;23.62;45.97
53550;BME280;67273;52.914;-0.982;2023-07-30T00:34:54;100267.19;;;23.61;45.90
53550;BME280;67273;52.914;-0.982;2023-07-30T00:37:20;100267.19;;;23.61;45.88
53550;BME280;67273;52.914;-0.982;2023-07-30T00:39:47;100269.38;;;23.59;45.87
53550;BME280;67273;52.914;-0.982;2023-07-30T00:42:13;100271.03;;;23.60;45.98
53550;BME280;67273;52.914;-0.982;2023-07-30T00:44:38;100268.28;;;23.60;46.03
53550;BME280;67273;52.914;-0.982;2023-07-30T00:47:04;100268.56;;;23.59;45.84
53550;BME280;67273;52.914;-0.982;2023-07-30T00:49:30;100267.75;;;23.58;46.02
53550;BME280;67273;52.914;-0.982;2023-07-30T00:51:56;100277.06;;;23.57;45.83
53550;BME280;67273;52.914;-0.982;2023-07-30T00:54:23;100269.97;;;23.56;45.83
53550;BME280;67273;52.914;-0.982;2023-07-30T00:56:52;100268.03;;;23.57;46.04
53550;BME280;67273;52.914;-0.982;2023-07-30T00:59:18;100270.78;;;23.57;45.86
53550;BME280;67273;52.914;-0.982;2023-07-30T01:01:46;100269.44;;;23.54;45.92
53550;BME280;67273;52.914;-0.982;2023-07-30T01:04:12;100273.78;;;23.55;45.89
53550;BME280;67273;52.914;-0.982;2023-07-30T01:06:38;100274.91;;;23.54;45.93
53550;BME280;67273;52.914;-0.982;2023-07-30T01:09:04;100278.47;;;23.54;45.93
53550;BME280;67273;52.914;-0.982;2023-07-30T01:11:30;100271.34;;;23.53;46.01
53550;BME280;67273;52.914;-0.982;2023-07-30T01:13:57;100270.53;;;23.53;46.04
53550;BME280;67273;52.914;-0.982;2023-07-30T01:16:24;100268.88;;;23.52;45.90
53550;BME280;67273;52.914;-0.982;2023-07-30T01:18:49;100267.25;;;23.51;45.93
53550;BME280;67273;52.914;-0.982;2023-07-30T01:21:17;100266.13;;;23.52;45.67
53550;BME280;67273;52.914;-0.982;2023-07-30T01:23:42;100261.75;;;23.51;46.00
53550;BME280;67273;52.914;-0.982;2023-07-30T01:26:10;100259.28;;;23.49;45.91
53550;BME280;67273;52.914;-0.982;2023-07-30T01:28:43;100258.47;;;23.49;46.00
53550;BME280;67273;52.914;-0.982;2023-07-30T01:31:14;100256.81;;;23.48;45.96
53550;BME280;67273;52.914;-0.982;2023-07-30T01:33:42;100256.03;;;23.47;46.00
53550;BME280;67273;52.914;-0.982;2023-07-30T01:36:10;100259.56;;;23.48;46.01
53550;BME280;67273;52.914;-0.982;2023-07-30T01:38:40;100268.91;;;23.47;45.95
53550;BME280;67273;52.914;-0.982;2023-07-30T01:41:07;100267.25;;;23.46;46.05
53550;BME280;67273;52.914;-0.982;2023-07-30T01:43:35;100263.72;;;23.45;46.08
53550;BME280;67273;52.914;-0.982;2023-07-30T01:46:03;100263.72;;;23.45;46.12
53550;BME280;67273;52.914;-0.982;2023-07-30T01:48:32;100269.19;;;23.45;46.02
53550;BME280;67273;52.914;-0.982;2023-07-30T01:51:02;100257.38;;;23.45;46.00
53550;BME280;67273;52.914;-0.982;2023-07-30T01:53:29;100264.00;;;23.44;46.00
53550;BME280;67273;52.914;-0.982;2023-07-30T01:55:59;100266.72;;;23.44;45.96
53550;BME280;67273;52.914;-0.982;2023-07-30T01:58:25;100271.38;;;23.43;46.17
53550;BME280;67273;52.914;-0.982;2023-07-30T02:00:51;100270.56;;;23.43;46.17
53550;BME280;67273;52.914;-0.982;2023-07-30T02:03:16;100276.03;;;23.43;46.06
53550;BME280;67273;52.914;-0.982;2023-07-30T02:05:42;100268.94;;;23.42;46.01
53550;BME280;67273;52.914;-0.982;2023-07-30T02:08:08;100272.50;;;23.42;46.20
53550;BME280;67273;52.914;-0.982;2023-07-30T02:10:34;100268.94;;;23.42;45.99
53550;BME280;67273;52.914;-0.982;2023-07-30T02:13:01;100266.47;;;23.40;46.13
53550;BME280;67273;52.914;-0.982;2023-07-30T02:15:26;100264.81;;;23.39;46.02
53550;BME280;67273;52.914;-0.982;2023-07-30T02:17:52;100267.28;;;23.41;46.13
53550;BME280;67273;52.914;-0.982;2023-07-30T02:20:18;100265.63;;;23.40;46.13
53550;BME280;67273;52.914;-0.982;2023-07-30T02:22:45;100258.53;;;23.39;45.95
53550;BME280;67273;52.914;-0.982;2023-07-30T02:25:11;100260.44;;;23.38;46.00
53550;BME280;67273;52.914;-0.982;2023-07-30T02:27:36;100262.34;;;23.38;45.98
53550;BME280;67273;52.914;-0.982;2023-07-30T02:30:05;100269.50;;;23.39;45.97
53550;BME280;67273;52.914;-0.982;2023-07-30T02:32:30;100278.81;;;23.38;46.11
53550;BME280;67273;52.914;-0.982;2023-07-30T02:34:56;100285.13;;;23.38;46.26
53550;BME280;67273;52.914;-0.982;2023-07-30T02:37:22;100284.28;;;23.38;46.09
53550;BME280;67273;52.914;-0.982;2023-07-30T02:39:48;100272.78;;;23.35;46.05
53550;BME280;67273;52.914;-0.982;2023-07-30T02:42:14;100274.44;;;23.37;46.11
53550;BME280;67273;52.914;-0.982;2023-07-30T02:44:40;100275.53;;;23.35;46.07
53550;BME280;67273;52.914;-0.982;2023-07-30T02:47:07;100282.13;;;23.34;46.05
53550;BME280;67273;52.914;-0.982;2023-07-30T02:49:32;100280.47;;;23.33;46.25
53550;BME280;67273;52.914;-0.982;2023-07-30T02:51:58;100276.66;;;23.34;46.12
53550;BME280;67273;52.914;-0.982;2023-07-30T02:54:24;100270.59;;;23.32;46.02
53550;BME280;67273;52.914;-0.982;2023-07-30T02:56:51;100277.72;;;23.33;46.14
53550;BME280;67273;52.914;-0.982;2023-07-30T02:59:19;100270.59;;;23.32;46.08
53550;BME280;67273;52.914;-0.982;2023-07-30T03:01:47;100270.59;;;23.32;46.09
53550;BME280;67273;52.914;-0.982;2023-07-30T03:04:15;100274.47;;;23.31;46.15
53550;BME280;67273;52.914;-0.982;2023-07-30T03:06:40;100268.97;;;23.31;46.09
53550;BME280;67273;52.914;-0.982;2023-07-30T03:09:07;100264.56;;;23.30;46.09
53550;BME280;67273;52.914;-0.982;2023-07-30T03:11:33;100264.56;;;23.30;46.20
53550;BME280;67273;52.914;-0.982;2023-07-30T03:13:58;100261.84;;;23.30;46.30
53550;BME280;67273;52.914;-0.982;2023-07-30T03:16:25;100254.72;;;23.29;46.20
53550;BME280;67273;52.914;-0.982;2023-07-30T03:18:55;100260.22;;;23.29;46.10
53550;BME280;67273;52.914;-0.982;2023-07-30T03:21:26;100258.56;;;23.28;46.20
53550;BME280;67273;52.914;-0.982;2023-07-30T03:23:52;100261.31;;;23.28;46.10
53550;BME280;67273;52.914;-0.982;2023-07-30T03:26:18;100264.03;;;23.28;46.25
53550;BME280;67273;52.914;-0.982;2023-07-30T03:28:44;100262.41;;;23.27;46.17
53550;BME280;67273;52.914;-0.982;2023-07-30T03:31:09;100267.91;;;23.27;45.93
53550;BME280;67273;52.914;-0.982;2023-07-30T03:33:36;100268.19;;;23.26;46.23
53550;BME280;67273;52.914;-0.982;2023-07-30T03:36:02;100276.41;;;23.26;46.23
53550;BME280;67273;52.914;-0.982;2023-07-30T03:38:29;100278.28;;;23.25;46.16
53550;BME280;67273;52.914;-0.982;2023-07-30T03:40:55;100275.56;;;23.25;46.27
53550;BME280;67273;52.914;-0.982;2023-07-30T03:43:21;100273.13;;;23.24;46.10
53550;BME280;67273;52.914;-0.982;2023-07-30T03:45:47;100288.72;;;23.23;46.31
53550;BME280;67273;52.914;-0.982;2023-07-30T03:48:14;100285.97;;;23.23;46.23
53550;BME280;67273;52.914;-0.982;2023-07-30T03:50:40;100278.88;;;23.22;46.25
53550;BME280;67273;52.914;-0.982;2023-07-30T03:53:05;100287.38;;;23.21;46.33
53550;BME280;67273;52.914;-0.982;2023-07-30T03:55:34;100278.06;;;23.16;46.26
53550;BME280;67273;52.914;-0.982;2023-07-30T03:58:01;100278.34;;;23.15;46.49
53550;BME280;67273;52.914;-0.982;2023-07-30T04:00:29;100280.53;;;23.13;46.30
53550;BME280;67273;52.914;-0.982;2023-07-30T04:02:56;100284.38;;;23.12;46.52
53550;BME280;67273;52.914;-0.982;2023-07-30T04:05:22;100283.00;;;23.09;46.58
53550;BME280;67273;52.914;-0.982;2023-07-30T04:07:50;100277.81;;;23.08;46.54
53550;BME280;67273;52.914;-0.982;2023-07-30T04:10:18;100275.38;;;23.06;46.57
53550;BME280;67273;52.914;-0.982;2023-07-30T04:12:54;100268.22;;;23.05;46.68
53550;BME280;67273;52.914;-0.982;2023-07-30T04:15:21;100278.63;;;23.03;46.69
53550;BME280;67273;52.914;-0.982;2023-07-30T04:17:48;100276.97;;;23.02;46.69
53550;BME280;67273;52.914;-0.982;2023-07-30T04:20:15;100267.13;;;23.01;46.64
53550;BME280;67273;52.914;-0.982;2023-07-30T04:22:45;100276.44;;;23.00;46.75
53550;BME280;67273;52.914;-0.982;2023-07-30T04:25:12;100284.91;;;22.98;46.82
53550;BME280;67273;52.914;-0.982;2023-07-30T04:27:38;100280.56;;;22.97;46.83
53550;BME280;67273;52.914;-0.982;2023-07-30T04:30:06;100296.47;;;22.95;46.64
53550;BME280;67273;52.914;-0.982;2023-07-30T04:32:33;100301.94;;;22.95;46.84
53550;BME280;67273;52.914;-0.982;2023-07-30T04:34:59;100303.03;;;22.94;46.63
53550;BME280;67273;52.914;-0.982;2023-07-30T04:37:25;100310.44;;;22.94;46.74
53550;BME280;67273;52.914;-0.982;2023-07-30T04:39:52;100304.41;;;22.92;46.87
53550;BME280;67273;52.914;-0.982;2023-07-30T04:42:18;100302.47;;;22.92;46.84
53550;BME280;67273;52.914;-0.982;2023-07-30T04:44:45;100315.38;;;22.92;46.95
53550;BME280;67273;52.914;-0.982;2023-07-30T04:47:17;100311.78;;;22.91;46.85
53550;BME280;67273;52.914;-0.982;2023-07-30T04:49:43;100311.25;;;22.89;46.93
53550;BME280;67273;52.914;-0.982;2023-07-30T04:52:11;100311.25;;;22.89;47.05
53550;BME280;67273;52.914;-0.982;2023-07-30T04:54:38;100315.09;;;22.88;47.00
53550;BME280;67273;52.914;-0.982;2023-07-30T04:57:06;100311.25;;;22.89;47.05
53550;BME280;67273;52.914;-0.982;2023-07-30T04:59:34;100316.19;;;22.87;47.00
53550;BME280;67273;52.914;-0.982;2023-07-30T05:02:01;100319.19;;;22.86;47.10
53550;BME280;67273;52.914;-0.982;2023-07-30T05:04:31;100327.13;;;22.87;47.01
53550;BME280;67273;52.914;-0.982;2023-07-30T05:06:58;100325.47;;;22.86;47.05
53550;BME280;67273;52.914;-0.982;2023-07-30T05:09:24;100341.09;;;22.86;47.04
53550;BME280;67273;52.914;-0.982;2023-07-30T05:11:50;100332.88;;;22.86;47.18
53550;BME280;67273;52.914;-0.982;2023-07-30T05:14:16;100330.41;;;22.84;47.02
53550;BME280;67273;52.914;-0.982;2023-07-30T05:16:41;100333.16;;;22.84;47.12
53550;BME280;67273;52.914;-0.982;2023-07-30T05:19:07;100341.38;;;22.84;47.09
53550;BME280;67273;52.914;-0.982;2023-07-30T05:21:35;100341.38;;;22.84;47.12
53550;BME280;67273;52.914;-0.982;2023-07-30T05:24:00;100341.38;;;22.84;47.26
53550;BME280;67273;52.914;-0.982;2023-07-30T05:26:26;100345.22;;;22.83;47.09
53550;BME280;67273;52.914;-0.982;2023-07-30T05:28:52;100346.31;;;22.82;47.30
53550;BME280;67273;52.914;-0.982;2023-07-30T05:31:17;100347.97;;;22.83;47.19
53550;BME280;67273;52.914;-0.982;2023-07-30T05:33:44;100343.56;;;22.82;47.25
53550;BME280;67273;52.914;-0.982;2023-07-30T05:36:09;100343.56;;;22.82;47.20
53550;BME280;67273;52.914;-0.982;2023-07-30T05:38:36;100336.47;;;22.81;47.07
53550;BME280;67273;52.914;-0.982;2023-07-30T05:41:02;100343.03;;;22.80;47.16
53550;BME280;67273;52.914;-0.982;2023-07-30T05:43:28;100352.91;;;22.81;47.18
53550;BME280;67273;52.914;-0.982;2023-07-30T05:45:53;100341.94;;;22.81;47.28
53550;BME280;67273;52.914;-0.982;2023-07-30T05:48:19;100340.28;;;22.80;47.36
53550;BME280;67273;52.914;-0.982;2023-07-30T05:50:45;100345.78;;;22.80;47.48
53550;BME280;67273;52.914;-0.982;2023-07-30T05:53:11;100343.03;;;22.80;47.23
53550;BME280;67273;52.914;-0.982;2023-07-30T05:55:38;100347.69;;;22.80;47.39
53550;BME280;67273;52.914;-0.982;2023-07-30T05:58:04;100345.78;;;22.80;47.29
53550;BME280;67273;52.914;-0.982;2023-07-30T06:00:30;100356.72;;;22.80;47.27
53550;BME280;67273;52.914;-0.982;2023-07-30T06:02:55;100354.00;;;22.80;47.32
53550;BME280;67273;52.914;-0.982;2023-07-30T06:05:21;100355.06;;;22.79;47.42
53550;BME280;67273;52.914;-0.982;2023-07-30T06:07:47;100355.91;;;22.80;47.32
53550;BME280;67273;52.914;-0.982;2023-07-30T06:10:13;100365.50;;;22.82;47.24
53550;BME280;67273;52.914;-0.982;2023-07-30T06:12:40;100367.16;;;22.83;47.30
53550;BME280;67273;52.914;-0.982;2023-07-30T06:15:08;100372.34;;;22.85;47.26
53550;BME280;67273;52.914;-0.982;2023-07-30T06:17:34;100378.38;;;22.87;47.18
53550;BME280;67273;52.914;-0.982;2023-07-30T06:20:00;100380.00;;;22.88;46.93
53550;BME280;67273;52.914;-0.982;2023-07-30T06:22:26;100378.91;;;22.89;47.04
53550;BME280;67273;52.914;-0.982;2023-07-30T06:24:52;100384.13;;;22.90;47.10
53550;BME280;67273;52.914;-0.982;2023-07-30T06:27:17;100391.22;;;22.91;47.04
53550;BME280;67273;52.914;-0.982;2023-07-30T06:29:44;100380.28;;;22.91;47.16
53550;BME280;67273;52.914;-0.982;2023-07-30T06:32:10;100383.56;;;22.93;47.13
53550;BME280;67273;52.914;-0.982;2023-07-30T06:34:36;100377.00;;;22.94;47.09
53550;BME280;67273;52.914;-0.982;2023-07-30T06:37:01;100381.38;;;22.95;47.13
53550;BME280;67273;52.914;-0.982;2023-07-30T06:39:27;100380.53;;;22.95;46.96
53550;BME280;67273;52.914;-0.982;2023-07-30T06:41:53;100380.28;;;22.96;46.96
53550;BME280;67273;52.914;-0.982;2023-07-30T06:44:19;100377.53;;;22.96;47.09
53550;BME280;67273;52.914;-0.982;2023-07-30T06:46:49;100383.00;;;22.96;46.72
53550;BME280;67273;52.914;-0.982;2023-07-30T06:49:15;100384.66;;;22.97;47.01
53550;BME280;67273;52.914;-0.982;2023-07-30T06:51:41;100384.66;;;22.97;46.94
53550;BME280;67273;52.914;-0.982;2023-07-30T06:54:06;100380.81;;;22.98;47.02
53550;BME280;67273;52.914;-0.982;2023-07-30T06:56:33;100384.66;;;22.97;46.92
53550;BME280;67273;52.914;-0.982;2023-07-30T06:58:58;100390.16;;;22.97;46.96
53550;BME280;67273;52.914;-0.982;2023-07-30T07:01:24;100387.41;;;22.97;46.85
53550;BME280;67273;52.914;-0.982;2023-07-30T07:03:51;100393.97;;;22.96;46.85
53550;BME280;67273;52.914;-0.982;2023-07-30T07:06:17;100391.50;;;22.95;46.82
53550;BME280;67273;52.914;-0.982;2023-07-30T07:08:43;100393.69;;;22.93;46.83
53550;BME280;67273;52.914;-0.982;2023-07-30T07:11:08;100384.13;;;22.90;46.92
53550;BME280;67273;52.914;-0.982;2023-07-30T07:13:34;100391.50;;;22.90;46.82
53550;BME280;67273;52.914;-0.982;2023-07-30T07:16:00;100392.06;;;22.87;46.66
53550;BME280;67273;52.914;-0.982;2023-07-30T07:18:25;100392.34;;;22.85;46.78
53550;BME280;67273;52.914;-0.982;2023-07-30T07:20:53;100389.59;;;22.85;46.91
53550;BME280;67273;52.914;-0.982;2023-07-30T07:23:18;100392.34;;;22.85;46.79
53550;BME280;67273;52.914;-0.982;2023-07-30T07:25:44;100403.28;;;22.85;46.82
53550;BME280;67273;52.914;-0.982;2023-07-30T07:28:10;100393.97;;;22.86;46.32
53550;BME280;67273;52.914;-0.982;2023-07-30T07:30:35;100393.97;;;22.86;46.47
53550;BME280;67273;52.914;-0.982;2023-07-30T07:33:05;100405.22;;;22.85;46.39
53550;BME280;67273;52.914;-0.982;2023-07-30T07:35:38;100402.75;;;22.83;46.49
53550;BME280;67273;52.914;-0.982;2023-07-30T07:38:05;100403.03;;;22.82;46.64
53550;BME280;67273;52.914;-0.982;2023-07-30T07:40:30;100410.44;;;22.81;46.23
53550;BME280;67273;52.914;-0.982;2023-07-30T07:43:01;100404.94;;;22.81;46.28
53550;BME280;67273;52.914;-0.982;2023-07-30T07:45:26;100415.31;;;22.79;46.05
53550;BME280;67273;52.914;-0.982;2023-07-30T07:47:52;100412.03;;;22.77;46.15
53550;BME280;67273;52.914;-0.982;2023-07-30T07:50:18;100409.56;;;22.75;45.91
53550;BME280;67273;52.914;-0.982;2023-07-30T07:52:43;100425.19;;;22.75;45.87
53550;BME280;67273;52.914;-0.982;2023-07-30T07:55:10;100415.31;;;22.74;45.94
53550;BME280;67273;52.914;-0.982;2023-07-30T07:57:36;100419.97;;;22.73;46.01
53550;BME280;67273;52.914;-0.982;2023-07-30T08:00:03;100412.59;;;22.74;45.84
53550;BME280;67273;52.914;-0.982;2023-07-30T08:02:37;100417.53;;;22.72;45.76
53550;BME280;67273;52.914;-0.982;2023-07-30T08:05:03;100427.38;;;22.73;45.75
53550;BME280;67273;52.914;-0.982;2023-07-30T08:07:29;100424.66;;;22.73;45.86
53550;BME280;67273;52.914;-0.982;2023-07-30T08:09:54;100429.59;;;22.71;45.80
53550;BME280;67273;52.914;-0.982;2023-07-30T08:12:22;100420.25;;;22.72;45.71
53550;BME280;67273;52.914;-0.982;2023-07-30T08:14:48;100427.38;;;22.73;45.91
53550;BME280;67273;52.914;-0.982;2023-07-30T08:17:13;100425.19;;;22.75;46.43
53550;BME280;67273;52.914;-0.982;2023-07-30T08:19:39;100425.75;;;22.77;46.65
53550;BME280;67273;52.914;-0.982;2023-07-30T08:22:05;100424.38;;;22.74;46.49
53550;BME280;67273;52.914;-0.982;2023-07-30T08:24:31;100410.97;;;22.73;46.07
53550;BME280;67273;52.914;-0.982;2023-07-30T08:26:57;100420.25;;;22.72;46.09
53550;BME280;67273;52.914;-0.982;2023-07-30T08:29:24;100421.91;;;22.73;46.27
53550;BME280;67273;52.914;-0.982;2023-07-30T08:31:49;100414.78;;;22.72;46.08
53550;BME280;67273;52.914;-0.982;2023-07-30T08:34:15;100420.25;;;22.72;46.20
53550;BME280;67273;52.914;-0.982;2023-07-30T08:36:41;100409.31;;;22.72;46.15
53550;BME280;67273;52.914;-0.982;2023-07-30T08:39:07;100425.72;;;22.72;46.32
53550;BME280;67273;52.914;-0.982;2023-07-30T08:41:33;100418.63;;;22.71;45.92
53550;BME280;67273;52.914;-0.982;2023-07-30T08:43:59;100417.53;;;22.72;45.68
53550;BME280;67273;52.914;-0.982;2023-07-30T08:46:30;100420.25;;;22.72;46.13
53550;BME280;67273;52.914;-0.982;2023-07-30T08:48:58;100424.09;;;22.71;45.92
53550;BME280;67273;52.914;-0.982;2023-07-30T08:51:27;100424.91;;;22.71;46.15
53550;BME280;67273;52.914;-0.982;2023-07-30T08:53:57;100421.38;;;22.71;45.78
53550;BME280;67273;52.914;-0.982;2023-07-30T08:56:24;100423.25;;;22.70;45.75
53550;BME280;67273;52.914;-0.982;2023-07-30T08:58:50;100409.31;;;22.72;45.72
53550;BME280;67273;52.914;-0.982;2023-07-30T09:01:18;100410.97;;;22.73;45.86
53550;BME280;67273;52.914;-0.982;2023-07-30T09:03:50;100418.34;;;22.72;45.43
53550;BME280;67273;52.914;-0.982;2023-07-30T09:06:18;100417.53;;;22.72;45.52
53550;BME280;67273;52.914;-0.982;2023-07-30T09:08:50;100423.84;;;22.72;45.57
53550;BME280;67273;52.914;-0.982;2023-07-30T09:11:17;100421.38;;;22.71;45.45
53550;BME280;67273;52.914;-0.982;2023-07-30T09:13:45;100430.41;;;22.71;45.76
53550;BME280;67273;52.914;-0.982;2023-07-30T09:16:23;100429.59;;;22.71;45.72
53550;BME280;67273;52.914;-0.982;2023-07-30T09:18:52;100429.59;;;22.71;45.62
53550;BME280;67273;52.914;-0.982;2023-07-30T09:21:29;100429.59;;;22.71;45.63
53550;BME280;67273;52.914;-0.982;2023-07-30T09:23:59;100433.94;;;22.72;45.57
53550;BME280;67273;52.914;-0.982;2023-07-30T09:26:42;100442.16;;;22.72;45.44
53550;BME280;67273;52.914;-0.982;2023-07-30T09:29:09;100442.16;;;22.72;45.45
53550;BME280;67273;52.914;-0.982;2023-07-30T09:31:45;100448.47;;;22.72;45.51
53550;BME280;67273;52.914;-0.982;2023-07-30T09:34:17;100430.41;;;22.71;45.50
53550;BME280;67273;52.914;-0.982;2023-07-30T09:36:44;100440.28;;;22.72;45.96
53550;BME280;67273;52.914;-0.982;2023-07-30T09:39:15;100441.63;;;22.75;46.21
53550;BME280;67273;52.914;-0.982;2023-07-30T09:41:41;100446.03;;;22.76;46.66
53550;BME280;67273;52.914;-0.982;2023-07-30T09:44:07;100450.94;;;22.79;47.75
53550;BME280;67273;52.914;-0.982;2023-07-30T09:46:41;100447.13;;;22.80;46.81
53550;BME280;67273;52.914;-0.982;2023-07-30T09:49:08;100457.00;;;22.81;46.92
53550;BME280;67273;52.914;-0.982;2023-07-30T09:51:36;100458.88;;;22.81;46.57
53550;BME280;67273;52.914;-0.982;2023-07-30T09:54:03;100478.91;;;22.81;46.26
53550;BME280;67273;52.914;-0.982;2023-07-30T09:56:28;100466.28;;;22.80;46.53
53550;BME280;67273;52.914;-0.982;2023-07-30T09:58:54;100467.09;;;22.81;46.47
53550;BME280;67273;52.914;-0.982;2023-07-30T10:01:23;100463.28;;;22.82;46.55
53550;BME280;67273;52.914;-0.982;2023-07-30T10:03:50;100469.84;;;22.81;46.50
53550;BME280;67273;52.914;-0.982;2023-07-30T10:06:18;100471.75;;;22.80;46.45
53550;BME280;67273;52.914;-0.982;2023-07-30T10:08:46;100476.16;;;22.81;46.00
53550;BME280;67273;52.914;-0.982;2023-07-30T10:11:13;100479.72;;;22.82;45.84
53550;BME280;67273;52.914;-0.982;2023-07-30T10:13:40;100478.91;;;22.81;45.51
53550;BME280;67273;52.914;-0.982;2023-07-30T10:16:09;100478.91;;;22.81;45.30
53550;BME280;67273;52.914;-0.982;2023-07-30T10:18:38;100485.47;;;22.80;45.42
53550;BME280;67273;52.914;-0.982;2023-07-30T10:21:07;100489.00;;;22.81;44.92
53550;BME280;67273;52.914;-0.982;2023-07-30T10:23:32;100471.75;;;22.80;44.81
53550;BME280;67273;52.914;-0.982;2023-07-30T10:26:09;100480.78;;;22.81;44.96
53550;BME280;67273;52.914;-0.982;2023-07-30T10:28:35;100485.19;;;22.82;45.71
53550;BME280;67273;52.914;-0.982;2023-07-30T10:31:06;100475.06;;;22.82;45.91
53550;BME280;67273;52.914;-0.982;2023-07-30T10:33:49;100474.25;;;22.82;45.76
53550;BME280;67273;52.914;-0.982;2023-07-30T10:36:18;100475.31;;;22.81;45.75
53550;BME280;67273;52.914;-0.982;2023-07-30T10:38:48;100484.94;;;22.83;45.54
53550;BME280;67273;52.914;-0.982;2023-07-30T10:41:16;100481.06;;;22.84;45.78
53550;BME280;67273;52.914;-0.982;2023-07-30T10:43:45;100484.94;;;22.83;45.73
53550;BME280;67273;52.914;-0.982;2023-07-30T10:46:13;100472.84;;;22.84;45.66
53550;BME280;67273;52.914;-0.982;2023-07-30T10:48:40;100474.50;;;22.85;45.60
53550;BME280;67273;52.914;-0.982;2023-07-30T10:51:09;100468.22;;;22.85;45.52
53550;BME280;67273;52.914;-0.982;2023-07-30T10:53:35;100467.94;;;22.86;45.50
53550;BME280;67273;52.914;-0.982;2023-07-30T10:56:02;100476.13;;;22.86;45.44
53550;BME280;67273;52.914;-0.982;2023-07-30T10:58:32;100477.81;;;22.87;45.67
53550;BME280;67273;52.914;-0.982;2023-07-30T11:00:59;100481.63;;;22.86;45.68
53550;BME280;67273;52.914;-0.982;2023-07-30T11:03:27;100489.84;;;22.86;45.70
53550;BME280;67273;52.914;-0.982;2023-07-30T11:05:53;100491.75;;;22.86;45.36
53550;BME280;67273;52.914;-0.982;2023-07-30T11:08:19;100493.69;;;22.85;45.30
53550;BME280;67273;52.914;-0.982;2023-07-30T11:10:45;100496.44;;;22.85;45.43
53550;BME280;67273;52.914;-0.982;2023-07-30T11:13:15;100480.00;;;22.85;45.03
53550;BME280;67273;52.914;-0.982;2023-07-30T11:15:43;100480.81;;;22.86;45.44
53550;BME280;67273;52.914;-0.982;2023-07-30T11:18:09;100484.09;;;22.88;45.41
53550;BME280;67273;52.914;-0.982;2023-07-30T11:20:35;100485.19;;;22.87;45.38
53550;BME280;67273;52.914;-0.982;2023-07-30T11:23:02;100473.97;;;22.88;45.48
53550;BME280;67273;52.914;-0.982;2023-07-30T11:25:28;100467.38;;;22.89;45.46
53550;BME280;67273;52.914;-0.982;2023-07-30T11:27:53;100463.84;;;22.89;45.43
53550;BME280;67273;52.914;-0.982;2023-07-30T11:30:19;100481.09;;;22.89;45.52
53550;BME280;67273;52.914;-0.982;2023-07-30T11:32:46;100464.66;;;22.89;45.34
53550;BME280;67273;52.914;-0.982;2023-07-30T11:35:13;100470.94;;;22.90;45.51
53550;BME280;67273;52.914;-0.982;2023-07-30T11:37:40;100460.81;;;22.90;45.26
53550;BME280;67273;52.914;-0.982;2023-07-30T11:40:08;100466.31;;;22.90;45.18
53550;BME280;67273;52.914;-0.982;2023-07-30T11:42:35;100466.31;;;22.90;45.14
53550;BME280;67273;52.914;-0.982;2023-07-30T11:45:19;100460.81;;;22.90;44.95
53550;BME280;67273;52.914;-0.982;2023-07-30T11:47:47;100465.19;;;22.91;44.99
53550;BME280;67273;52.914;-0.982;2023-07-30T11:50:13;100470.69;;;22.91;44.73
53550;BME280;67273;52.914;-0.982;2023-07-30T11:52:51;100474.25;;;22.92;44.82
53550;BME280;67273;52.914;-0.982;2023-07-30T11:55:17;100467.66;;;22.93;44.69
53550;BME280;67273;52.914;-0.982;2023-07-30T11:57:45;100475.06;;;22.92;44.43
53550;BME280;67273;52.914;-0.982;2023-07-30T12:00:11;100470.41;;;22.93;44.33
53550;BME280;67273;52.914;-0.982;2023-07-30T12:02:40;100461.38;;;22.92;44.17
53550;BME280;67273;52.914;-0.982;2023-07-30T12:05:10;100462.44;;;22.91;44.19
53550;BME280;67273;52.914;-0.982;2023-07-30T12:07:39;100473.41;;;22.91;44.03
53550;BME280;67273;52.914;-0.982;2023-07-30T12:10:09;100484.38;;;22.91;44.08
53550;BME280;67273;52.914;-0.982;2023-07-30T12:12:35;100488.78;;;22.92;44.14
53550;BME280;67273;52.914;-0.982;2023-07-30T12:15:01;100475.06;;;22.92;44.18
53550;BME280;67273;52.914;-0.982;2023-07-30T12:17:26;100494.25;;;22.92;44.13
53550;BME280;67273;52.914;-0.982;2023-07-30T12:19:52;100491.50;;;22.92;44.18
53550;BME280;67273;52.914;-0.982;2023-07-30T12:22:21;100491.50;;;22.92;43.97
53550;BME280;67273;52.914;-0.982;2023-07-30T12:24:47;100491.50;;;22.92;44.07
53550;BME280;67273;52.914;-0.982;2023-07-30T12:27:13;100493.13;;;22.93;44.11
53550;BME280;67273;52.914;-0.982;2023-07-30T12:29:38;100492.31;;;22.93;44.06
53550;BME280;67273;52.914;-0.982;2023-07-30T12:32:04;100491.50;;;22.92;44.09
53550;BME280;67273;52.914;-0.982;2023-07-30T12:34:30;100497.00;;;22.92;44.32
53550;BME280;67273;52.914;-0.982;2023-07-30T12:36:56;100490.69;;;22.92;44.46
53550;BME280;67273;52.914;-0.982;2023-07-30T12:39:24;100486.84;;;22.93;44.53